Firestone, Colorado
Current Conditions -  °F | °C
As of 3:15 AM on Saturday 20 Dec 2014 (Local Time) from KLMO Reporting Station
Clear Clear  
Wind Chill: 18°   Ceiling: Unl
Heat Index: 24°   Visibility: 10mi
Dew Point: 19°   Wind: 5mph
Humidity: 80%   Direction: 280°W
Pressure: 30.01"   Gusts: NA
Location:  40.11°N, 104.94°W
Report Text: KLMO 201015Z AUTO 28004KT 10SM CLR M05/M07 A3001 RMK AO2 T10461075
Loading
Personal Weather Stations






























Interactive Weather Map New forecast layout! Learn more

10-Day Weather Forecast

Advertisements
Track Severe Weather on mobile